createdAt,value
2023-06-19T00:00:15.734Z,0
2023-06-19T00:01:15.921Z,0
2023-06-19T00:02:16.181Z,0
2023-06-19T00:03:16.633Z,0
2023-06-19T00:04:17.244Z,0
2023-06-19T00:05:17.657Z,0
2023-06-19T00:06:17.822Z,0
2023-06-19T00:07:18.048Z,0
2023-06-19T00:08:18.224Z,0
2023-06-19T00:09:18.429Z,0
2023-06-19T00:10:18.592Z,0
2023-06-19T00:11:18.748Z,0
2023-06-19T00:12:18.928Z,0
2023-06-19T00:13:19.095Z,0
2023-06-19T00:14:19.250Z,0
2023-06-19T00:15:19.417Z,0
2023-06-19T00:16:19.639Z,0
2023-06-19T00:17:20.021Z,0
2023-06-19T00:18:20.284Z,0
2023-06-19T00:19:20.471Z,0
2023-06-19T00:20:20.772Z,0
2023-06-19T00:21:21.420Z,0
2023-06-19T00:22:21.629Z,0
2023-06-19T00:23:21.797Z,0
2023-06-19T00:24:22.021Z,0
2023-06-19T00:25:22.355Z,0
2023-06-19T00:26:22.515Z,0
2023-06-19T00:27:22.846Z,0
2023-06-19T00:28:23.023Z,0
2023-06-19T00:29:23.177Z,0
2023-06-19T00:30:23.516Z,0
2023-06-19T00:31:24.464Z,0
2023-06-19T00:32:24.654Z,0
2023-06-19T00:33:24.944Z,0
2023-06-19T00:34:25.107Z,0
2023-06-19T00:35:25.342Z,0
2023-06-19T00:36:25.643Z,0
2023-06-19T00:37:25.799Z,0
2023-06-19T00:38:25.970Z,0
2023-06-19T00:39:26.152Z,0
2023-06-19T00:40:26.346Z,0
2023-06-19T00:41:26.515Z,0
2023-06-19T00:42:26.683Z,0
2023-06-19T00:43:26.857Z,0
2023-06-19T00:44:27.059Z,0
2023-06-19T00:45:27.228Z,0
2023-06-19T00:46:27.649Z,0
2023-06-19T00:47:28.160Z,0
2023-06-19T00:48:28.418Z,0
2023-06-19T00:49:28.575Z,0
2023-06-19T00:50:28.738Z,0
2023-06-19T00:51:28.946Z,0
2023-06-19T00:52:29.107Z,0
2023-06-19T00:53:29.311Z,0
2023-06-19T00:54:29.473Z,0
2023-06-19T00:55:29.657Z,0
2023-06-19T00:56:29.813Z,0
2023-06-19T00:57:29.980Z,0
2023-06-19T00:58:30.180Z,0
2023-06-19T00:59:30.431Z,0
2023-06-19T01:00:30.618Z,0
2023-06-19T01:01:30.836Z,0
2023-06-19T01:02:31.178Z,0
2023-06-19T01:03:31.648Z,0
2023-06-19T01:04:32.164Z,0
2023-06-19T01:05:32.496Z,0
2023-06-19T01:06:32.660Z,0
2023-06-19T01:07:32.837Z,0
2023-06-19T01:08:33.006Z,0
2023-06-19T01:09:33.175Z,0
2023-06-19T01:10:33.318Z,0
2023-06-19T01:11:33.522Z,0
2023-06-19T01:12:33.772Z,0
2023-06-19T01:13:33.943Z,0
2023-06-19T01:14:34.123Z,0
2023-06-19T01:15:34.289Z,0
2023-06-19T01:16:34.510Z,0
2023-06-19T01:17:34.791Z,0
2023-06-19T01:18:35.128Z,0
2023-06-19T01:19:35.307Z,0
2023-06-19T01:20:35.488Z,0
2023-06-19T01:21:35.679Z,0
2023-06-19T01:22:35.922Z,0
2023-06-19T01:23:36.109Z,0
2023-06-19T01:24:36.493Z,0
2023-06-19T01:25:36.914Z,0
2023-06-19T01:26:37.097Z,0
2023-06-19T01:27:37.263Z,0
2023-06-19T01:28:37.439Z,0
2023-06-19T01:29:37.630Z,0
2023-06-19T01:30:37.882Z,0
2023-06-19T01:31:38.059Z,0
2023-06-19T01:32:38.242Z,0
2023-06-19T01:33:38.516Z,0
2023-06-19T01:34:40.900Z,0
2023-06-19T01:35:41.705Z,0
2023-06-19T01:36:41.866Z,0
2023-06-19T01:37:42.084Z,0
2023-06-19T01:38:42.558Z,0
2023-06-19T01:39:42.765Z,0
2023-06-19T01:40:42.960Z,0
2023-06-19T01:41:43.167Z,0
2023-06-19T01:42:43.328Z,0
2023-06-19T01:43:43.493Z,0
2023-06-19T01:44:43.673Z,0
2023-06-19T01:45:43.837Z,0
2023-06-19T01:46:44.042Z,0
2023-06-19T01:47:44.277Z,0
2023-06-19T01:48:44.575Z,0
2023-06-19T01:49:44.777Z,0
2023-06-19T01:50:44.938Z,0
2023-06-19T01:51:45.098Z,0
2023-06-19T01:52:45.274Z,0
2023-06-19T01:53:45.446Z,0
2023-06-19T01:54:45.608Z,0
2023-06-19T01:55:45.813Z,0
2023-06-19T01:56:45.972Z,0
2023-06-19T01:57:46.145Z,0
2023-06-19T01:58:46.299Z,0
2023-06-19T01:59:46.466Z,0
2023-06-19T02:00:46.641Z,0
2023-06-19T02:01:46.806Z,0
2023-06-19T02:02:47.026Z,0
2023-06-19T02:03:47.642Z,0
2023-06-19T02:04:48.194Z,0
2023-06-19T02:05:48.423Z,0
2023-06-19T02:06:48.631Z,0
2023-06-19T02:07:48.780Z,0
2023-06-19T02:08:48.940Z,0
2023-06-19T02:09:49.113Z,0
2023-06-19T02:10:49.305Z,0
2023-06-19T02:11:49.484Z,0
2023-06-19T02:12:49.662Z,0
2023-06-19T02:13:49.839Z,0
2023-06-19T02:14:50.031Z,0
2023-06-19T02:15:50.266Z,0
2023-06-19T02:16:50.510Z,0
2023-06-19T02:17:50.747Z,0
2023-06-19T02:18:51.052Z,0
2023-06-19T02:19:51.234Z,0
2023-06-19T02:20:51.394Z,0
2023-06-19T02:21:51.555Z,0
2023-06-19T02:22:51.734Z,0
2023-06-19T02:23:51.977Z,0
2023-06-19T02:24:52.255Z,0
2023-06-19T02:25:52.452Z,0
2023-06-19T02:26:52.607Z,0
2023-06-19T02:27:52.770Z,0
2023-06-19T02:28:52.945Z,0
2023-06-19T02:29:53.099Z,0
2023-06-19T02:30:53.260Z,0
2023-06-19T02:31:53.429Z,0
2023-06-19T02:32:53.668Z,0
2023-06-19T02:33:53.887Z,0
2023-06-19T02:34:54.059Z,0
2023-06-19T02:35:54.242Z,0
2023-06-19T02:36:54.406Z,0
2023-06-19T02:37:54.563Z,0
2023-06-19T02:38:54.741Z,0
2023-06-19T02:39:54.893Z,0
2023-06-19T02:40:55.066Z,0
2023-06-19T02:41:55.251Z,0
2023-06-19T02:42:55.427Z,0
2023-06-19T02:43:55.622Z,0
2023-06-19T02:44:55.804Z,0
2023-06-19T02:45:56.028Z,0
2023-06-19T02:46:56.368Z,0
2023-06-19T02:47:56.587Z,0
2023-06-19T02:48:56.953Z,0
2023-06-19T02:49:57.131Z,0
2023-06-19T02:50:57.297Z,0
2023-06-19T02:51:57.463Z,0
2023-06-19T02:52:57.680Z,0
2023-06-19T02:53:57.866Z,0
2023-06-19T02:54:58.034Z,0
2023-06-19T02:55:58.242Z,0
2023-06-19T02:56:58.436Z,0
2023-06-19T02:57:58.601Z,0
2023-06-19T02:58:58.790Z,0
2023-06-19T02:59:58.962Z,0
2023-06-19T03:00:59.159Z,0
2023-06-19T03:01:59.424Z,0
2023-06-19T03:02:59.630Z,0
2023-06-19T03:04:00.151Z,0
2023-06-19T03:05:00.316Z,0
2023-06-19T03:06:00.509Z,0
2023-06-19T03:07:00.680Z,0
2023-06-19T03:08:00.852Z,0
2023-06-19T03:09:01.135Z,0
2023-06-19T03:10:01.297Z,0
2023-06-19T03:11:01.478Z,0
2023-06-19T03:12:01.641Z,0
2023-06-19T03:13:01.800Z,0
2023-06-19T03:14:02.174Z,0
2023-06-19T03:15:02.338Z,0
2023-06-19T03:16:02.502Z,0
2023-06-19T03:17:02.687Z,0
2023-06-19T03:18:03.006Z,0
2023-06-19T03:19:03.370Z,0
2023-06-19T03:20:03.563Z,2
2023-06-19T03:21:03.725Z,3
2023-06-19T03:22:03.903Z,4
2023-06-19T03:23:04.060Z,6
2023-06-19T03:24:04.328Z,8
2023-06-19T03:25:04.704Z,8
2023-06-19T03:26:04.859Z,11
2023-06-19T03:27:05.019Z,11
2023-06-19T03:28:05.224Z,11
2023-06-19T03:29:05.401Z,15
2023-06-19T03:30:05.570Z,15
2023-06-19T03:31:05.758Z,15
2023-06-19T03:32:05.929Z,20
2023-06-19T03:33:06.115Z,20
2023-06-19T03:34:06.553Z,26
2023-06-19T03:35:06.716Z,26
2023-06-19T03:36:06.903Z,26
2023-06-19T03:37:07.097Z,26
2023-06-19T03:38:07.272Z,26
2023-06-19T03:39:07.450Z,26
2023-06-19T03:40:07.637Z,34
2023-06-19T03:41:07.806Z,34
2023-06-19T03:42:07.995Z,34
2023-06-19T03:43:08.173Z,34
2023-06-19T03:44:08.348Z,34
2023-06-19T03:45:08.501Z,34
2023-06-19T03:46:08.748Z,45
2023-06-19T03:47:09.117Z,45
2023-06-19T03:48:09.299Z,45
2023-06-19T03:49:09.507Z,45
2023-06-19T03:50:19.508Z,59
2023-06-19T03:51:26.464Z,64
2023-06-19T03:52:26.617Z,64
2023-06-19T03:53:26.791Z,64
2023-06-19T03:54:26.941Z,64
2023-06-19T03:55:27.107Z,64
2023-06-19T03:56:27.371Z,64
2023-06-19T03:57:27.559Z,64
2023-06-19T03:58:27.726Z,64
2023-06-19T03:59:27.897Z,64
2023-06-19T04:00:28.263Z,64
2023-06-19T04:01:28.656Z,64
2023-06-19T04:02:28.959Z,64
2023-06-19T04:03:29.399Z,64
2023-06-19T04:04:29.908Z,64
2023-06-19T04:05:30.088Z,64
2023-06-19T04:06:30.322Z,64
2023-06-19T04:07:30.481Z,64
2023-06-19T04:08:30.670Z,64
2023-06-19T04:09:30.837Z,64
2023-06-19T04:10:30.987Z,64
2023-06-19T04:11:31.144Z,64
2023-06-19T04:12:31.330Z,64
2023-06-19T04:13:31.518Z,64
2023-06-19T04:14:31.695Z,77
2023-06-19T04:15:31.884Z,77
2023-06-19T04:16:32.220Z,77
2023-06-19T04:17:32.578Z,110
2023-06-19T04:18:32.832Z,110
2023-06-19T04:19:32.993Z,110
2023-06-19T04:20:33.157Z,150
2023-06-19T04:21:33.351Z,150
2023-06-19T04:22:33.550Z,150
2023-06-19T04:23:33.721Z,200
2023-06-19T04:24:33.905Z,200
2023-06-19T04:25:34.213Z,260
2023-06-19T04:26:34.367Z,260
2023-06-19T04:27:34.533Z,260
2023-06-19T04:28:34.747Z,260
2023-06-19T04:29:34.918Z,260
2023-06-19T04:30:35.117Z,260
2023-06-19T04:31:35.292Z,260
2023-06-19T04:32:35.498Z,260
2023-06-19T04:33:35.951Z,260
2023-06-19T04:34:36.397Z,260
2023-06-19T04:35:36.553Z,339.84
2023-06-19T04:36:36.707Z,339.84
2023-06-19T04:37:36.866Z,339.84
2023-06-19T04:38:37.024Z,339.84
2023-06-19T04:39:37.208Z,339.84
2023-06-19T04:40:37.426Z,339.84
2023-06-19T04:41:37.668Z,339.84
2023-06-19T04:42:37.851Z,339.84
2023-06-19T04:43:38.038Z,339.84
2023-06-19T04:44:38.341Z,339.84
2023-06-19T04:45:38.502Z,339.84
2023-06-19T04:46:38.708Z,339.84
2023-06-19T04:47:48.463Z,339.84
2023-06-19T04:48:54.736Z,349.76
2023-06-19T04:49:54.886Z,349.76
2023-06-19T04:50:55.057Z,349.76
2023-06-19T04:51:55.237Z,349.76
2023-06-19T04:52:55.400Z,349.76
2023-06-19T04:53:55.555Z,349.76
2023-06-19T04:54:55.722Z,349.76
2023-06-19T04:55:55.892Z,229.92
2023-06-19T04:56:56.068Z,229.92
2023-06-19T04:57:56.256Z,229.92
2023-06-19T04:58:56.443Z,229.92
2023-06-19T04:59:56.599Z,229.92
2023-06-19T05:00:56.786Z,229.92
2023-06-19T05:01:57.040Z,229.92
2023-06-19T05:02:57.692Z,229.92
2023-06-19T05:03:57.992Z,229.92
2023-06-19T05:04:58.462Z,229.92
2023-06-19T05:05:58.634Z,229.92
2023-06-19T05:06:58.807Z,229.92
2023-06-19T05:07:58.968Z,229.92
2023-06-19T05:08:59.132Z,229.92
2023-06-19T05:09:59.297Z,229.92
2023-06-19T05:10:59.455Z,229.92
2023-06-19T05:11:59.646Z,229.92
2023-06-19T05:12:59.806Z,229.92
2023-06-19T05:14:00.002Z,229.92
2023-06-19T05:15:00.204Z,229.92
2023-06-19T05:16:00.448Z,229.92
2023-06-19T05:17:00.794Z,229.92
2023-06-19T05:18:01.144Z,229.92
2023-06-19T05:19:01.504Z,229.92
2023-06-19T05:20:01.683Z,229.92
2023-06-19T05:21:01.870Z,229.92
2023-06-19T05:22:02.024Z,300
2023-06-19T05:23:02.185Z,300
2023-06-19T05:24:02.404Z,300
2023-06-19T05:25:02.761Z,300
2023-06-19T05:26:02.930Z,389.76
2023-06-19T05:27:03.097Z,389.76
2023-06-19T05:28:05.013Z,389.76
2023-06-19T05:29:06.488Z,389.76
2023-06-19T05:30:06.650Z,389.76
2023-06-19T05:31:06.860Z,389.76
2023-06-19T05:32:07.042Z,509.76
2023-06-19T05:33:07.226Z,509.76
2023-06-19T05:34:07.466Z,509.76
2023-06-19T05:35:07.715Z,509.76
2023-06-19T05:36:07.928Z,509.76
2023-06-19T05:37:08.092Z,669.44
2023-06-19T05:38:08.276Z,669.44
2023-06-19T05:39:08.436Z,669.44
2023-06-19T05:40:08.619Z,669.44
2023-06-19T05:41:08.869Z,669.44
2023-06-19T05:42:09.047Z,669.44
2023-06-19T05:43:09.219Z,880
2023-06-19T05:44:09.390Z,880
2023-06-19T05:45:09.558Z,880
2023-06-19T05:46:09.748Z,880
2023-06-19T05:47:10.008Z,880
2023-06-19T05:48:10.253Z,1159.68
2023-06-19T05:49:10.727Z,1159.68
2023-06-19T05:50:10.904Z,1159.68
2023-06-19T05:51:11.091Z,1159.68
2023-06-19T05:52:11.300Z,1159.68
2023-06-19T05:53:13.358Z,1159.68
2023-06-19T05:54:16.277Z,1319.68
2023-06-19T05:55:16.498Z,1319.68
2023-06-19T05:56:16.915Z,1319.68
2023-06-19T05:57:17.135Z,1319.68
2023-06-19T05:58:17.360Z,1319.68
2023-06-19T05:59:17.605Z,1519.36
2023-06-19T06:00:17.780Z,1519.36
2023-06-19T06:01:17.994Z,1519.36
2023-06-19T06:02:18.270Z,1519.36
2023-06-19T06:03:18.448Z,1978.88
2023-06-19T06:04:18.654Z,1978.88
2023-06-19T06:05:18.981Z,1978.88
2023-06-19T06:06:19.153Z,1978.88
2023-06-19T06:07:19.327Z,1978.88
2023-06-19T06:08:19.502Z,1978.88
2023-06-19T06:09:19.672Z,1978.88
2023-06-19T06:10:19.830Z,2579.2
2023-06-19T06:11:19.990Z,2579.2
2023-06-19T06:12:20.163Z,2579.2
2023-06-19T06:13:20.603Z,2579.2
2023-06-19T06:14:20.911Z,2579.2
2023-06-19T06:15:21.106Z,2579.2
2023-06-19T06:16:21.340Z,2579.2
2023-06-19T06:17:21.637Z,2579.2
2023-06-19T06:18:22.071Z,3358.72
2023-06-19T06:19:22.236Z,3358.72
2023-06-19T06:20:22.543Z,3358.72
2023-06-19T06:21:23.659Z,3358.72
2023-06-19T06:22:23.834Z,3358.72
2023-06-19T06:23:23.998Z,3358.72
2023-06-19T06:24:24.172Z,3358.72
2023-06-19T06:25:24.429Z,3358.72
2023-06-19T06:26:24.594Z,3358.72
2023-06-19T06:27:24.760Z,3358.72
2023-06-19T06:28:24.950Z,3358.72
2023-06-19T06:29:25.122Z,3358.72
2023-06-19T06:30:25.485Z,3358.72
2023-06-19T06:31:26.522Z,3358.72
2023-06-19T06:32:26.704Z,3358.72
2023-06-19T06:33:26.977Z,4398.08
2023-06-19T06:34:27.170Z,4398.08
2023-06-19T06:35:27.332Z,4398.08
2023-06-19T06:36:35.912Z,4398.08
2023-06-19T06:37:53.294Z,4979.2
2023-06-19T06:38:53.496Z,4979.2
2023-06-19T06:39:53.799Z,4979.2
2023-06-19T06:40:53.988Z,4979.2
2023-06-19T06:41:54.169Z,4979.2
2023-06-19T06:42:54.339Z,4979.2
2023-06-19T06:43:54.591Z,4979.2
2023-06-19T06:44:54.777Z,4979.2
2023-06-19T06:45:54.978Z,4979.2
2023-06-19T06:46:55.252Z,4979.2
2023-06-19T06:47:55.789Z,5719.04
2023-06-19T06:48:56.224Z,5719.04
2023-06-19T06:49:56.390Z,5719.04
2023-06-19T06:50:56.550Z,5719.04
2023-06-19T06:51:57.978Z,5719.04
2023-06-19T06:52:58.501Z,5719.04
2023-06-19T06:53:58.664Z,5719.04
2023-06-19T06:54:58.840Z,5719.04
2023-06-19T06:55:59.010Z,5719.04
2023-06-19T06:56:59.195Z,5719.04
2023-06-19T06:57:59.377Z,5719.04
2023-06-19T06:58:59.534Z,5719.04
2023-06-19T06:59:59.690Z,7536.64
2023-06-19T07:00:59.869Z,7536.64
2023-06-19T07:02:00.267Z,7536.64
2023-06-19T07:03:00.640Z,7536.64
2023-06-19T07:04:01.252Z,7536.64
2023-06-19T07:05:01.462Z,7536.64
2023-06-19T07:06:01.642Z,7536.64
2023-06-19T07:07:01.799Z,7536.64
2023-06-19T07:08:01.964Z,7536.64
2023-06-19T07:09:02.141Z,7536.64
2023-06-19T07:10:02.310Z,7536.64
2023-06-19T07:11:02.491Z,7536.64
2023-06-19T07:12:02.679Z,7536.64
2023-06-19T07:13:02.860Z,7536.64
2023-06-19T07:14:03.035Z,7536.64
2023-06-19T07:15:03.209Z,7536.64
2023-06-19T07:16:03.370Z,7536.64
2023-06-19T07:17:03.673Z,7536.64
2023-06-19T07:18:03.967Z,7536.64
2023-06-19T07:19:04.314Z,7536.64
2023-06-19T07:20:04.476Z,7536.64
2023-06-19T07:21:04.668Z,7536.64
2023-06-19T07:22:04.819Z,7536.64
2023-06-19T07:23:04.992Z,7536.64
2023-06-19T07:24:05.173Z,7536.64
2023-06-19T07:25:05.556Z,7536.64
2023-06-19T07:26:05.766Z,7536.64
2023-06-19T07:27:05.937Z,7536.64
2023-06-19T07:28:06.106Z,7536.64
2023-06-19T07:29:06.270Z,7536.64
2023-06-19T07:30:06.466Z,7536.64
2023-06-19T07:31:06.645Z,7536.64
2023-06-19T07:32:06.821Z,7536.64
2023-06-19T07:33:07.054Z,7536.64
2023-06-19T07:34:07.380Z,9917.44
2023-06-19T07:35:07.563Z,9917.44
2023-06-19T07:36:07.717Z,9917.44
2023-06-19T07:37:07.950Z,9917.44
2023-06-19T07:38:08.120Z,9917.44
2023-06-19T07:39:08.278Z,9917.44
2023-06-19T07:40:08.444Z,9917.44
2023-06-19T07:41:08.599Z,9917.44
2023-06-19T07:42:08.802Z,9917.44
2023-06-19T07:43:08.968Z,9917.44
2023-06-19T07:44:09.150Z,9917.44
2023-06-19T07:45:09.361Z,9917.44
2023-06-19T07:46:09.547Z,9917.44
2023-06-19T07:47:09.869Z,9917.44
2023-06-19T07:48:10.163Z,9917.44
2023-06-19T07:49:10.765Z,9917.44
2023-06-19T07:50:10.920Z,9917.44
2023-06-19T07:51:11.097Z,6917.12
2023-06-19T07:52:11.311Z,6917.12
2023-06-19T07:53:11.497Z,6917.12
2023-06-19T07:54:11.692Z,6917.12
2023-06-19T07:55:11.884Z,6917.12
2023-06-19T07:56:12.069Z,6917.12
2023-06-19T07:57:12.261Z,6917.12
2023-06-19T07:58:12.446Z,6917.12
2023-06-19T07:59:12.601Z,6917.12
2023-06-19T08:00:12.872Z,6917.12
2023-06-19T08:01:13.095Z,6917.12
2023-06-19T08:02:13.333Z,6917.12
2023-06-19T08:03:13.795Z,6917.12
2023-06-19T08:04:14.384Z,6917.12
2023-06-19T08:05:14.917Z,6917.12
2023-06-19T08:06:15.392Z,6917.12
2023-06-19T08:07:15.567Z,6917.12
2023-06-19T08:08:15.765Z,6917.12
2023-06-19T08:09:15.943Z,6917.12
2023-06-19T08:10:16.126Z,6917.12
2023-06-19T08:11:16.306Z,6917.12
2023-06-19T08:12:16.494Z,6917.12
2023-06-19T08:13:16.671Z,6917.12
2023-06-19T08:14:16.855Z,6917.12
2023-06-19T08:15:17.041Z,6917.12
2023-06-19T08:16:17.274Z,6917.12
2023-06-19T08:17:17.681Z,6917.12
2023-06-19T08:18:18.361Z,6917.12
2023-06-19T08:19:18.513Z,6917.12
2023-06-19T08:20:18.702Z,6917.12
2023-06-19T08:21:18.896Z,6917.12
2023-06-19T08:22:19.078Z,6917.12
2023-06-19T08:23:20.728Z,6917.12
2023-06-19T08:24:20.988Z,6917.12
2023-06-19T08:25:21.309Z,9016.32
2023-06-19T08:26:21.710Z,9016.32
2023-06-19T08:27:21.894Z,9016.32
2023-06-19T08:28:22.086Z,9016.32
2023-06-19T08:29:22.269Z,9016.32
2023-06-19T08:30:22.565Z,9016.32
2023-06-19T08:31:23.839Z,9016.32
2023-06-19T08:32:24.076Z,9016.32
2023-06-19T08:33:24.419Z,11796.48
2023-06-19T08:34:24.604Z,11796.48
2023-06-19T08:35:24.800Z,11796.48
2023-06-19T08:36:24.967Z,11796.48
2023-06-19T08:37:25.148Z,11796.48
2023-06-19T08:38:25.314Z,11796.48
2023-06-19T08:39:26.633Z,11796.48
2023-06-19T08:40:28.433Z,11796.48
2023-06-19T08:41:29.402Z,11796.48
2023-06-19T08:42:29.565Z,11796.48
2023-06-19T08:43:29.757Z,11796.48
2023-06-19T08:44:29.928Z,11796.48
2023-06-19T08:45:30.091Z,11796.48
2023-06-19T08:46:30.304Z,11796.48
2023-06-19T08:47:30.686Z,11796.48
2023-06-19T08:48:30.943Z,11796.48
2023-06-19T08:49:31.134Z,11796.48
2023-06-19T08:50:31.302Z,11796.48
2023-06-19T08:51:31.485Z,11796.48
2023-06-19T08:52:31.691Z,11796.48
2023-06-19T08:53:31.970Z,8258.56
2023-06-19T08:54:32.150Z,8258.56
2023-06-19T08:55:32.350Z,8258.56
2023-06-19T08:56:32.538Z,8258.56
2023-06-19T08:57:32.716Z,8258.56
2023-06-19T08:58:32.881Z,8258.56
2023-06-19T08:59:33.280Z,8258.56
2023-06-19T09:00:33.868Z,8258.56
2023-06-19T09:01:34.632Z,8258.56
2023-06-19T09:02:34.834Z,8258.56
2023-06-19T09:03:35.327Z,8258.56
2023-06-19T09:04:35.673Z,8258.56
2023-06-19T09:05:35.870Z,8258.56
2023-06-19T09:06:36.197Z,13199.36
2023-06-19T09:07:36.775Z,13199.36
2023-06-19T09:08:37.282Z,13199.36
2023-06-19T09:09:37.454Z,13199.36
2023-06-19T09:10:37.608Z,13199.36
2023-06-19T09:11:37.788Z,13199.36
2023-06-19T09:12:37.956Z,13199.36
2023-06-19T09:13:38.123Z,13199.36
2023-06-19T09:14:38.291Z,13199.36
2023-06-19T09:15:38.477Z,13199.36
2023-06-19T09:16:38.759Z,13199.36
2023-06-19T09:17:38.948Z,13199.36
2023-06-19T09:18:39.164Z,13199.36
2023-06-19T09:19:39.326Z,9195.52
2023-06-19T09:20:39.503Z,9195.52
2023-06-19T09:21:39.699Z,9195.52
2023-06-19T09:22:39.945Z,9195.52
2023-06-19T09:23:40.183Z,9195.52
2023-06-19T09:24:40.420Z,9195.52
2023-06-19T09:25:40.844Z,9195.52
2023-06-19T09:26:41.042Z,9195.52
2023-06-19T09:27:41.236Z,9195.52
2023-06-19T09:28:41.422Z,9195.52
2023-06-19T09:29:41.897Z,9195.52
2023-06-19T09:30:42.139Z,9195.52
2023-06-19T09:31:42.308Z,9195.52
2023-06-19T09:32:42.541Z,9195.52
2023-06-19T09:33:43.009Z,9195.52
2023-06-19T09:34:43.426Z,9195.52
2023-06-19T09:35:43.638Z,9195.52
2023-06-19T09:36:43.822Z,9195.52
2023-06-19T09:37:43.974Z,9195.52
2023-06-19T09:38:44.129Z,9195.52
2023-06-19T09:39:44.320Z,9195.52
2023-06-19T09:40:44.493Z,9195.52
2023-06-19T09:41:45.894Z,11991.04
2023-06-19T09:42:48.625Z,11991.04
2023-06-19T09:43:48.799Z,11991.04
2023-06-19T09:44:48.967Z,11991.04
2023-06-19T09:45:49.157Z,11991.04
2023-06-19T09:46:49.396Z,11991.04
2023-06-19T09:47:50.488Z,11991.04
2023-06-19T09:48:51.434Z,11991.04
2023-06-19T09:49:51.596Z,15595.52
2023-06-19T09:50:51.785Z,15595.52
2023-06-19T09:51:51.953Z,15595.52
2023-06-19T09:52:52.220Z,15595.52
2023-06-19T09:53:52.773Z,15595.52
2023-06-19T09:54:52.951Z,15595.52
2023-06-19T09:55:53.124Z,15595.52
2023-06-19T09:56:53.305Z,15595.52
2023-06-19T09:57:53.492Z,15595.52
2023-06-19T09:58:53.699Z,15595.52
2023-06-19T09:59:53.967Z,15595.52
2023-06-19T10:00:54.153Z,15595.52
2023-06-19T10:01:54.343Z,15595.52
2023-06-19T10:02:54.654Z,15595.52
2023-06-19T10:03:55.088Z,15595.52
2023-06-19T10:04:55.274Z,15595.52
2023-06-19T10:05:55.468Z,15595.52
2023-06-19T10:06:55.629Z,15595.52
2023-06-19T10:07:55.789Z,15595.52
2023-06-19T10:08:55.953Z,15595.52
2023-06-19T10:09:56.115Z,15595.52
2023-06-19T10:10:56.275Z,15595.52
2023-06-19T10:11:56.437Z,15595.52
2023-06-19T10:12:56.610Z,15595.52
2023-06-19T10:13:56.829Z,15595.52
2023-06-19T10:14:56.994Z,15595.52
2023-06-19T10:15:57.168Z,15595.52
2023-06-19T10:16:57.348Z,15595.52
2023-06-19T10:17:57.649Z,15595.52
2023-06-19T10:18:57.959Z,15595.52
2023-06-19T10:19:58.252Z,15595.52
2023-06-19T10:20:58.575Z,15595.52
2023-06-19T10:21:59.978Z,15595.52
2023-06-19T10:23:01.940Z,15595.52
2023-06-19T10:24:05.711Z,15595.52
2023-06-19T10:25:06.072Z,15595.52
2023-06-19T10:26:06.264Z,15595.52
2023-06-19T10:27:06.455Z,15595.52
2023-06-19T10:28:06.628Z,15595.52
2023-06-19T10:29:06.792Z,15595.52
2023-06-19T10:30:12.147Z,15595.52
2023-06-19T10:31:16.916Z,18595.84
2023-06-19T10:32:17.076Z,18595.84
2023-06-19T10:33:17.236Z,18595.84
2023-06-19T10:34:17.399Z,18595.84
2023-06-19T10:35:17.602Z,20398.08
2023-06-19T10:36:18.234Z,20398.08
2023-06-19T10:37:18.435Z,20398.08
2023-06-19T10:38:18.617Z,20398.08
2023-06-19T10:39:18.792Z,20398.08
2023-06-19T10:40:18.953Z,20398.08
2023-06-19T10:41:19.119Z,20398.08
2023-06-19T10:42:19.296Z,20398.08
2023-06-19T10:43:19.470Z,20398.08
2023-06-19T10:44:19.641Z,20398.08
2023-06-19T10:45:19.797Z,20398.08
2023-06-19T10:46:21.272Z,20398.08
2023-06-19T10:47:21.891Z,20398.08
2023-06-19T10:48:22.190Z,20398.08
2023-06-19T10:49:22.361Z,20398.08
2023-06-19T10:50:22.654Z,20398.08
2023-06-19T10:51:23.820Z,20398.08
2023-06-19T10:52:23.991Z,20398.08
2023-06-19T10:53:24.153Z,20398.08
2023-06-19T10:54:24.352Z,20398.08
2023-06-19T10:55:24.634Z,20398.08
2023-06-19T10:56:24.838Z,20398.08
2023-06-19T10:57:25.086Z,20398.08
2023-06-19T10:58:25.250Z,20398.08
2023-06-19T10:59:25.449Z,20398.08
2023-06-19T11:00:25.916Z,20398.08
2023-06-19T11:01:26.622Z,20398.08
2023-06-19T11:02:26.907Z,20398.08
2023-06-19T11:03:27.745Z,20398.08
2023-06-19T11:04:28.286Z,20398.08
2023-06-19T11:05:28.495Z,20398.08
2023-06-19T11:06:28.729Z,20398.08
2023-06-19T11:07:28.906Z,20398.08
2023-06-19T11:08:29.078Z,20398.08
2023-06-19T11:09:29.268Z,20398.08
2023-06-19T11:10:29.456Z,20398.08
2023-06-19T11:11:29.672Z,26787.84
2023-06-19T11:12:29.862Z,26787.84
2023-06-19T11:13:30.023Z,26787.84
2023-06-19T11:14:30.327Z,26787.84
2023-06-19T11:15:30.570Z,26787.84
2023-06-19T11:16:30.859Z,26787.84
2023-06-19T11:17:31.127Z,26787.84
2023-06-19T11:18:31.340Z,26787.84
2023-06-19T11:19:31.531Z,26787.84
2023-06-19T11:20:31.761Z,26787.84
2023-06-19T11:21:31.948Z,26787.84
2023-06-19T11:22:32.152Z,34979.84
2023-06-19T11:23:32.315Z,34979.84
2023-06-19T11:24:32.515Z,34979.84
2023-06-19T11:25:32.848Z,34979.84
2023-06-19T11:26:33.029Z,34979.84
2023-06-19T11:27:33.209Z,34979.84
2023-06-19T11:28:33.382Z,34979.84
2023-06-19T11:29:33.619Z,34979.84
2023-06-19T11:30:33.959Z,34979.84
2023-06-19T11:31:34.371Z,34979.84
2023-06-19T11:32:34.721Z,34979.84
2023-06-19T11:33:35.504Z,34979.84
2023-06-19T11:34:35.746Z,45998.08
2023-06-19T11:35:35.948Z,45998.08
2023-06-19T11:36:36.158Z,45998.08
2023-06-19T11:37:36.362Z,45998.08
2023-06-19T11:38:36.545Z,59760.64
2023-06-19T11:39:36.750Z,59760.64
2023-06-19T11:40:36.921Z,59760.64
2023-06-19T11:41:37.116Z,59760.64
2023-06-19T11:42:37.281Z,59760.64
2023-06-19T11:43:37.460Z,59760.64
2023-06-19T11:44:39.049Z,59760.64
2023-06-19T11:45:40.626Z,59760.64
2023-06-19T11:46:41.584Z,59760.64
2023-06-19T11:47:41.813Z,59760.64
2023-06-19T11:48:43.684Z,59760.64
2023-06-19T11:50:07.593Z,63160.32
2023-06-19T11:51:07.878Z,63160.32
2023-06-19T11:52:08.148Z,63160.32
2023-06-19T11:53:08.541Z,63160.32
2023-06-19T11:54:08.763Z,63160.32
2023-06-19T11:55:08.948Z,63160.32
2023-06-19T11:56:09.325Z,63160.32
2023-06-19T11:57:09.487Z,63160.32
2023-06-19T11:58:09.662Z,63160.32
2023-06-19T11:59:09.860Z,78397.44
2023-06-19T12:00:10.040Z,78397.44
2023-06-19T12:01:10.198Z,78397.44
2023-06-19T12:02:10.435Z,78397.44
2023-06-19T12:03:11.122Z,78397.44
2023-06-19T12:04:12.115Z,78397.44
2023-06-19T12:05:13.108Z,78397.44
2023-06-19T12:06:13.438Z,54763.52
2023-06-19T12:07:13.628Z,54763.52
2023-06-19T12:08:13.817Z,54763.52
2023-06-19T12:09:13.996Z,54763.52
2023-06-19T12:10:14.230Z,54763.52
2023-06-19T12:11:14.398Z,54763.52
2023-06-19T12:12:14.586Z,54763.52
2023-06-19T12:13:14.775Z,54763.52
2023-06-19T12:14:14.962Z,54763.52
2023-06-19T12:15:15.131Z,54763.52
2023-06-19T12:16:15.297Z,54763.52
2023-06-19T12:17:15.505Z,54763.52
2023-06-19T12:18:16.004Z,54763.52
2023-06-19T12:19:20.547Z,54763.52
2023-06-19T12:20:21.788Z,60989.44
2023-06-19T12:21:34.785Z,60989.44
2023-06-19T12:22:43.288Z,61972.48
2023-06-19T12:23:43.519Z,61972.48
2023-06-19T12:24:43.754Z,61972.48
2023-06-19T12:25:44.223Z,61972.48
2023-06-19T12:26:44.417Z,61972.48
2023-06-19T12:27:44.580Z,61972.48
2023-06-19T12:28:44.743Z,61972.48
2023-06-19T12:29:44.908Z,61972.48
2023-06-19T12:30:45.093Z,61972.48
2023-06-19T12:31:45.399Z,61972.48
2023-06-19T12:32:45.578Z,61972.48
2023-06-19T12:33:45.864Z,61972.48
2023-06-19T12:34:46.020Z,61972.48
2023-06-19T12:35:46.205Z,61972.48
2023-06-19T12:36:46.363Z,61972.48
2023-06-19T12:37:46.558Z,71966.72
2023-06-19T12:38:46.860Z,71966.72
2023-06-19T12:39:47.034Z,71966.72
2023-06-19T12:40:47.216Z,71966.72
2023-06-19T12:41:47.403Z,71966.72
2023-06-19T12:42:47.565Z,71966.72
2023-06-19T12:43:47.720Z,71966.72
2023-06-19T12:44:47.890Z,71966.72
2023-06-19T12:45:48.067Z,71966.72
2023-06-19T12:46:48.403Z,71966.72
2023-06-19T12:47:48.881Z,71966.72
2023-06-19T12:48:49.394Z,71966.72
2023-06-19T12:49:49.553Z,71966.72
2023-06-19T12:50:49.726Z,71966.72
2023-06-19T12:51:49.895Z,71966.72
2023-06-19T12:52:50.063Z,71966.72
2023-06-19T12:53:50.234Z,49397.76
2023-06-19T12:54:50.404Z,67788.8